Time;durP1;ratioP1;P1;durP2;ratioP2;P2;SDS_P1;SDS_P2;PMS_P1;PMS_P2;Temp;Humidity;BMP_temperature;BMP_pressure;BME280_temperature;BME280_humidity;BME280_pressure;Samples;Min_cycle;Max_cycle;Signal;HPM_P1;HPM_P2
2021/04/21 00:01:02;;;;;;;10.00;3.53;;;;;;;7.13;100.00;100103.28;5113069;28;20062;-78
2021/04/21 00:04:08;;;;;;;8.35;3.47;;;;;;;7.15;100.00;100100.81;5112605;28;20051;-79
2021/04/21 00:07:15;;;;;;;8.10;3.42;;;;;;;7.15;100.00;100106.38;5112867;28;20084;-78
2021/04/21 00:10:22;;;;;;;7.07;3.20;;;;;;;7.18;100.00;100110.25;5112249;28;20456;-77
2021/04/21 00:13:27;;;;;;;8.60;3.72;;;;;;;7.21;100.00;100109.38;5113082;28;20055;-77
2021/04/21 00:16:33;;;;;;;14.20;4.22;;;;;;;7.22;100.00;100110.91;5112799;28;20062;-78
2021/04/21 00:19:40;;;;;;;9.48;3.97;;;;;;;7.22;100.00;100111.69;5111546;28;20065;-78
2021/04/21 00:22:49;;;;;;;10.10;4.25;;;;;;;7.23;100.00;100107.69;5112505;28;20106;-78
2021/04/21 00:25:55;;;;;;;9.38;3.03;;;;;;;7.22;100.00;100113.66;5112577;28;20054;-79
2021/04/21 00:28:59;;;;;;;7.15;3.40;;;;;;;7.24;100.00;100109.22;5112468;28;20161;-77
2021/04/21 00:32:05;;;;;;;5.07;3.47;;;;;;;7.24;100.00;100114.78;5099761;28;20055;-78
2021/04/21 00:35:12;;;;;;;4.32;2.67;;;;;;;7.21;100.00;100120.44;5099704;28;20536;-78
2021/04/21 00:38:21;;;;;;;9.13;3.58;;;;;;;7.26;100.00;100117.88;5112257;28;20066;-77
2021/04/21 00:41:40;;;;;;;8.93;3.78;;;;;;;7.31;100.00;100113.75;5111797;28;20070;-79
2021/04/21 00:45:15;;;;;;;13.90;3.75;;;;;;;7.32;100.00;100116.06;5112322;28;20065;-79
2021/04/21 00:48:43;;;;;;;6.20;3.38;;;;;;;7.45;100.00;100118.84;5111754;28;20058;-78
2021/04/21 00:51:53;;;;;;;11.25;4.20;;;;;;;7.56;100.00;100120.00;5112121;28;20054;-77
2021/04/21 00:55:10;;;;;;;7.60;4.20;;;;;;;7.59;100.00;100119.13;5111688;28;20253;-78
2021/04/21 00:58:35;;;;;;;18.05;5.65;;;;;;;7.58;100.00;100123.09;5111953;28;20078;-77
2021/04/21 01:01:41;;;;;;;15.52;4.55;;;;;;;7.63;100.00;100114.22;5098799;28;20051;-78
2021/04/21 01:04:46;;;;;;;16.10;5.45;;;;;;;7.69;100.00;100119.19;5099389;28;20422;-78
2021/04/21 01:07:53;;;;;;;16.90;5.53;;;;;;;7.70;100.00;100112.41;5111740;28;20054;-77
2021/04/21 01:11:11;;;;;;;15.93;6.55;;;;;;;7.72;100.00;100121.06;5111958;28;20055;-78
2021/04/21 01:14:18;;;;;;;23.77;6.75;;;;;;;7.74;100.00;100118.59;5111501;28;20058;-78
2021/04/21 01:17:26;;;;;;;15.63;5.03;;;;;;;7.78;100.00;100113.72;5110882;28;20058;-78
2021/04/21 01:20:43;;;;;;;11.18;5.85;;;;;;;7.87;100.00;100127.66;5111691;28;20070;-77
2021/04/21 01:23:52;;;;;;;14.10;6.80;;;;;;;8.04;100.00;100132.56;5110892;28;20397;-77
2021/04/21 01:27:10;;;;;;;28.38;7.32;;;;;;;8.19;100.00;100138.34;5111132;28;20054;-78
2021/04/21 01:30:18;;;;;;;7.75;5.72;;;;;;;8.26;100.00;100132.56;5111241;28;20058;-78
2021/04/21 01:33:23;;;;;;;19.50;5.20;;;;;;;8.34;100.00;100134.63;5110492;28;20059;-78
2021/04/21 01:36:30;;;;;;;9.18;5.80;;;;;;;8.42;100.00;100135.16;5111150;28;20070;-78
2021/04/21 01:39:39;;;;;;;13.25;6.85;;;;;;;8.46;100.00;100135.78;5111269;28;20059;-78
2021/04/21 01:42:45;;;;;;;17.30;5.95;;;;;;;8.46;100.00;100133.00;5098636;28;20524;-78
2021/04/21 01:45:54;;;;;;;11.50;5.95;;;;;;;8.48;100.00;100144.44;5090025;28;20055;-78
2021/04/21 01:49:19;;;;;;;17.80;4.93;;;;;;;8.50;100.00;100141.97;5090535;28;20055;-78
2021/04/21 01:52:48;;;;;;;14.60;6.80;;;;;;;8.50;100.00;100147.53;5077687;28;20055;-78
2021/04/21 01:55:58;;;;;;;19.80;6.70;;;;;;;8.46;100.00;100135.78;5090278;28;20051;-78
2021/04/21 01:59:06;;;;;;;16.50;6.38;;;;;;;8.43;100.00;100142.25;5090291;28;20059;-78
2021/04/21 02:02:22;;;;;;;14.85;5.40;;;;;;;8.39;100.00;100136.84;5090473;28;20070;-78
2021/04/21 02:05:44;;;;;;;28.13;7.38;;;;;;;8.34;100.00;100137.41;5077328;28;20066;-78
2021/04/21 02:09:13;;;;;;;18.77;6.43;;;;;;;8.27;100.00;100134.13;5077899;28;20417;-78
2021/04/21 02:12:20;;;;;;;14.98;5.75;;;;;;;8.25;100.00;100148.44;5090076;28;20059;-78
2021/04/21 02:15:48;;;;;;;16.02;6.68;;;;;;;8.22;100.00;100143.78;5089705;28;20051;-78
2021/04/21 02:18:51;;;;;;;17.50;6.13;;;;;;;8.19;100.00;100149.44;5090174;28;20063;-78
2021/04/21 02:22:31;;;;;;;15.02;7.03;;;;;;;8.13;100.00;100149.28;5089042;28;20059;-78
2021/04/21 02:26:03;;;;;;;15.73;6.82;;;;;;;8.07;100.00;100153.06;5089869;28;20083;-80
2021/04/21 02:29:20;;;;;;;11.77;5.25;;;;;;;8.03;100.00;100150.44;5090398;28;20546;-77
2021/04/21 02:32:54;;;;;;;17.85;5.03;;;;;;;7.97;100.00;100149.44;5089567;28;20405;-78
2021/04/21 02:36:08;;;;;;;10.25;4.65;;;;;;;7.94;100.00;100155.91;5092943;28;20055;-78
2021/04/21 02:39:24;;;;;;;10.38;4.88;;;;;;;7.90;100.00;100154.47;5082082;28;20051;-77
2021/04/21 02:42:42;;;;;;;14.20;5.10;;;;;;;7.85;100.00;100163.38;5093762;28;20051;-78
2021/04/21 02:46:03;;;;;;;14.98;6.40;;;;;;;7.81;100.00;100168.25;5113878;28;20055;-76
2021/04/21 02:49:30;;;;;;;9.98;5.03;;;;;;;7.75;100.00;100159.75;5114429;28;20405;-76
2021/04/21 02:52:55;;;;;;;10.57;4.72;;;;;;;7.72;100.00;100168.19;5113695;28;20062;-76
2021/04/21 02:55:58;;;;;;;9.85;5.18;;;;;;;7.69;100.00;100166.31;5113969;28;20089;-76
2021/04/21 02:59:11;;;;;;;9.38;4.28;;;;;;;7.64;100.00;100170.44;5114361;28;20051;-76
2021/04/21 03:02:33;;;;;;;8.77;4.32;;;;;;;7.62;100.00;100170.09;5114171;28;20054;-76
2021/04/21 03:05:37;;;;;;;10.00;5.13;;;;;;;7.58;100.00;100183.28;5113517;28;21478;-76
2021/04/21 03:08:46;;;;;;;13.48;5.80;;;;;;;7.52;100.00;100171.22;5114229;28;20064;-76
2021/04/21 03:11:53;;;;;;;8.88;4.60;;;;;;;7.43;100.00;100180.22;5113632;28;20045;-76
2021/04/21 03:15:24;;;;;;;11.18;4.82;;;;;;;7.36;100.00;100185.25;5114093;28;20420;-76
2021/04/21 03:18:31;;;;;;;14.25;5.65;;;;;;;7.24;100.00;100181.25;5113332;28;20062;-76
2021/04/21 03:21:39;;;;;;;7.95;3.28;;;;;;;7.16;100.00;100182.72;5113751;28;20552;-76
2021/04/21 03:24:51;;;;;;;8.00;4.47;;;;;;;7.11;100.00;100191.56;5113481;28;20058;-76
2021/04/21 03:27:58;;;;;;;9.82;5.18;;;;;;;7.08;100.00;100200.00;5113801;28;20397;-76
2021/04/21 03:31:06;;;;;;;10.52;5.00;;;;;;;7.00;100.00;100198.63;5113536;28;20062;-76
2021/04/21 03:34:14;;;;;;;10.15;5.30;;;;;;;6.92;100.00;100203.63;5113479;28;20055;-76
2021/04/21 03:37:35;;;;;;;7.45;3.38;;;;;;;6.87;100.00;100201.41;5112739;28;20059;-77
2021/04/21 03:40:40;;;;;;;13.13;5.85;;;;;;;6.85;100.00;100203.84;5100805;28;20397;-76
2021/04/21 03:43:44;;;;;;;10.98;4.28;;;;;;;6.85;100.00;100203.84;5113193;28;20050;-77
2021/04/21 03:46:49;;;;;;;14.63;4.70;;;;;;;6.90;100.00;100208.84;5112510;28;20059;-77
2021/04/21 03:49:54;;;;;;;12.40;6.13;;;;;;;6.91;100.00;100202.06;5100648;28;20058;-77
2021/04/21 03:53:07;;;;;;;25.35;6.95;;;;;;;6.90;100.00;100206.06;5112469;28;20063;-78
2021/04/21 03:56:18;;;;;;;17.05;5.68;;;;;;;6.93;100.00;100205.16;5112815;28;20405;-77
2021/04/21 03:59:22;;;;;;;14.10;6.63;;;;;;;6.93;100.00;100204.41;5100017;28;20410;-77
2021/04/21 04:02:29;;;;;;;14.10;5.78;;;;;;;6.94;100.00;100217.03;5113452;28;20059;-78
2021/04/21 04:06:01;;;;;;;13.73;6.13;;;;;;;6.90;100.00;100217.16;5100277;28;20126;-76
2021/04/21 04:09:07;;;;;;;22.67;5.70;;;;;;;6.92;100.00;100214.72;5112814;28;20067;-76
2021/04/21 04:12:12;;;;;;;25.20;6.10;;;;;;;6.88;100.00;100216.81;5113033;28;20055;-77
2021/04/21 04:15:16;;;;;;;15.60;6.15;;;;;;;6.84;100.00;100218.91;5112927;28;20055;-78
2021/04/21 04:18:21;;;;;;;22.15;7.90;;;;;;;6.79;100.00;100216.69;5112074;28;20397;-78
2021/04/21 04:21:31;;;;;;;10.02;6.68;;;;;;;6.75;100.00;100216.81;5112703;28;20055;-76
2021/04/21 04:24:52;;;;;;;22.02;7.35;;;;;;;6.73;100.00;100224.00;5112872;28;20058;-76
2021/04/21 04:27:59;;;;;;;15.43;7.10;;;;;;;6.69;100.00;100221.31;5112786;28;20071;-76
2021/04/21 04:31:04;;;;;;;24.27;8.32;;;;;;;6.66;100.00;100221.44;5112415;28;20055;-76
2021/04/21 04:34:09;;;;;;;24.02;7.88;;;;;;;6.61;100.00;100221.97;5112466;28;20058;-76
2021/04/21 04:37:16;;;;;;;12.90;5.88;;;;;;;6.61;100.00;100233.81;5112171;28;20419;-76
2021/04/21 04:40:20;;;;;;;14.27;5.85;;;;;;;6.58;100.00;100228.38;5111267;28;20058;-76
2021/04/21 04:43:24;;;;;;;16.92;5.65;;;;;;;6.61;100.00;100238.56;5112375;28;20066;-76
2021/04/21 04:46:29;;;;;;;15.75;6.45;;;;;;;6.64;100.00;100232.16;5111944;28;20054;-76
2021/04/21 04:49:40;;;;;;;13.70;6.30;;;;;;;6.68;100.00;100239.16;5112201;28;20055;-76
2021/04/21 04:52:46;;;;;;;12.52;5.43;;;;;;;6.69;100.00;100246.22;5112029;28;20066;-77
2021/04/21 04:55:50;;;;;;;8.13;4.60;;;;;;;6.70;100.00;100249.75;5111490;28;20070;-78
2021/04/21 04:58:56;;;;;;;11.20;5.75;;;;;;;6.68;100.00;100246.66;5110774;28;20496;-78
2021/04/21 05:02:01;;;;;;;15.88;6.13;;;;;;;6.67;100.00;100247.91;5112391;28;20063;-76
2021/04/21 05:05:07;;;;;;;12.43;5.57;;;;;;;6.68;100.00;100258.53;5111703;28;20055;-77
2021/04/21 05:08:15;;;;;;;12.55;5.43;;;;;;;6.68;100.00;100254.97;5111751;28;20054;-77
2021/04/21 05:11:23;;;;;;;16.65;4.95;;;;;;;6.69;100.00;100264.84;5111138;28;20051;-77
2021/04/21 05:14:28;;;;;;;5.55;3.63;;;;;;;6.69;100.00;100262.06;5111717;28;20110;-78
2021/04/21 05:18:04;;;;;;;12.43;4.25;;;;;;;6.70;100.00;100263.59;5112275;28;20058;-78
2021/04/21 05:21:48;;;;;;;6.25;3.33;;;;;;;6.72;100.00;100278.56;5111782;28;20059;-78
2021/04/21 05:25:28;;;;;;;7.35;3.30;;;;;;;6.78;100.00;100270.47;5110877;28;20050;-76
2021/04/21 05:29:02;;;;;;;11.25;3.65;;;;;;;6.80;100.00;100279.13;5110004;28;20059;-78
2021/04/21 05:32:30;;;;;;;6.45;3.42;;;;;;;6.81;100.00;100275.16;5112168;28;20050;-78
2021/04/21 05:35:43;;;;;;;9.10;5.30;;;;;;;6.85;100.00;100284.13;5110622;28;20067;-78
2021/04/21 05:39:11;;;;;;;3.33;2.60;;;;;;;6.91;100.00;100296.19;5110833;28;20078;-78
2021/04/21 05:42:54;;;;;;;4.85;3.15;;;;;;;6.92;100.00;100285.91;5110338;28;20062;-78
2021/04/21 05:46:17;;;;;;;12.80;2.92;;;;;;;6.93;100.00;100287.47;5077959;28;20055;-78
2021/04/21 05:49:42;;;;;;;4.80;3.30;;;;;;;6.93;100.00;100293.75;5089722;28;20047;-77
2021/04/21 05:53:07;;;;;;;6.68;3.25;;;;;;;6.89;100.00;100293.09;5090336;28;20137;-77
2021/04/21 05:57:05;;;;;;;10.23;2.50;;;;;;;6.85;100.00;100300.72;5090155;28;20051;-76
2021/04/21 06:00:29;;;;;;;4.97;3.05;;;;;;;6.78;100.00;100303.69;5089917;28;20063;-77
2021/04/21 06:03:35;;;;;;;3.40;1.92;;;;;;;6.69;100.00;100311.88;5090288;28;20047;-79
2021/04/21 06:06:38;;;;;;;6.03;3.10;;;;;;;6.62;100.00;100306.53;5090416;28;20059;-80
2021/04/21 06:09:42;;;;;;;3.40;2.40;;;;;;;6.55;100.00;100323.31;5090176;28;20418;-80
2021/04/21 06:12:47;;;;;;;4.10;2.50;;;;;;;6.50;100.00;100332.16;5090134;28;20051;-81
2021/04/21 06:15:50;;;;;;;3.55;2.47;;;;;;;6.47;100.00;100350.44;5090462;28;20047;-78
2021/04/21 06:19:06;;;;;;;4.35;2.22;;;;;;;6.44;100.00;100344.97;5089795;28;20063;-78
2021/04/21 06:22:10;;;;;;;8.80;3.20;;;;;;;6.42;100.00;100341.84;5089826;28;20059;-80
2021/04/21 06:25:15;;;;;;;4.70;2.85;;;;;;;6.40;100.00;100342.31;5089842;28;20552;-80
2021/04/21 06:28:21;;;;;;;6.60;2.72;;;;;;;6.43;100.00;100354.50;5089326;28;20063;-80
2021/04/21 06:31:43;;;;;;;6.93;2.53;;;;;;;6.44;100.00;100358.81;5089566;28;20051;-80
2021/04/21 06:35:01;;;;;;;6.00;2.53;;;;;;;6.43;100.00;100365.56;5104710;28;20058;-80
2021/04/21 06:38:07;;;;;;;6.00;2.90;;;;;;;6.42;100.00;100348.19;5105203;28;20055;-80
2021/04/21 06:41:11;;;;;;;7.20;2.60;;;;;;;6.42;100.00;100358.47;5110442;28;20067;-78
2021/04/21 06:44:14;;;;;;;2.53;2.33;;;;;;;6.40;100.00;100358.13;5097948;28;20066;-79
2021/04/21 06:47:20;;;;;;;2.65;2.03;;;;;;;6.39;100.00;100354.56;5097839;28;20524;-80
2021/04/21 06:50:42;;;;;;;5.47;2.03;;;;;;;6.40;100.00;100355.34;5110282;28;20405;-78
2021/04/21 06:53:46;;;;;;;;;;;;;;;6.37;100.00;100364.50;5110706;28;20063;-78
2021/04/21 06:56:50;;;;;;;2.25;1.38;;;;;;;6.35;100.00;100364.16;5110066;28;19916;-78
2021/04/21 07:00:13;;;;;;;1.90;1.70;;;;;;;6.31;100.00;100369.81;5110333;28;20070;-79
2021/04/21 07:03:18;;;;;;;2.08;1.77;;;;;;;6.29;100.00;100366.69;5097823;28;20059;-79
2021/04/21 07:06:22;;;;;;;5.53;1.75;;;;;;;6.33;100.00;100377.66;5110267;28;20067;-77
2021/04/21 07:09:26;;;;;;;10.18;2.15;;;;;;;6.38;100.00;100379.91;5110420;28;20058;-76
2021/04/21 07:12:30;;;;;;;2.15;1.75;;;;;;;6.42;100.00;100381.38;5097651;28;20520;-77
2021/04/21 07:15:35;;;;;;;4.43;1.48;;;;;;;6.48;100.00;100384.38;5110559;28;20054;-77
2021/04/21 07:18:49;;;;;;;1.10;1.10;;;;;;;6.55;100.00;100384.19;5110009;28;20066;-76
2021/04/21 07:21:53;;;;;;;2.08;1.30;;;;;;;6.65;100.00;100388.66;5111401;28;20046;-77
2021/04/21 07:24:57;;;;;;;2.47;1.45;;;;;;;6.72;100.00;100383.72;5113536;28;20059;-77
2021/04/21 07:28:01;;;;;;;1.45;1.02;;;;;;;6.77;100.00;100387.97;5113522;28;20050;-77
2021/04/21 07:31:16;;;;;;;1.60;1.27;;;;;;;6.76;100.00;100389.94;5114191;28;20441;-76
2021/04/21 07:34:29;;;;;;;0.80;0.77;;;;;;;6.77;100.00;100396.25;5113048;28;20059;-79
2021/04/21 07:37:37;;;;;;;0.80;0.80;;;;;;;6.79;100.00;100396.59;5113571;28;20051;-77
2021/04/21 07:40:41;;;;;;;0.93;0.68;;;;;;;6.82;100.00;100392.97;5113590;28;20063;-78
2021/04/21 07:43:48;;;;;;;2.10;1.38;;;;;;;6.87;100.00;100400.72;5113207;28;20046;-77
2021/04/21 07:47:06;;;;;;;0.75;0.60;;;;;;;6.92;100.00;100402.97;5113910;28;20701;-76
2021/04/21 07:50:10;;;;;;;5.93;1.00;;;;;;;6.96;100.00;100405.63;5113041;28;20058;-78
2021/04/21 07:53:14;;;;;;;3.17;1.08;;;;;;;6.99;100.00;100413.06;5103365;28;20835;-78
2021/04/21 07:56:19;;;;;;;0.85;0.73;;;;;;;7.03;100.00;100403.47;5100297;28;20051;-78
2021/04/21 07:59:28;;;;;;;0.88;0.88;;;;;;;7.11;100.00;100415.88;5112758;28;20532;-80
2021/04/21 08:02:34;;;;;;;4.13;1.88;;;;;;;7.20;100.00;100429.88;5100438;28;20047;-79
2021/04/21 08:05:53;;;;;;;0.70;0.70;;;;;;;7.28;100.00;100431.22;5112652;28;20127;-80
2021/04/21 08:08:56;;;;;;;1.63;1.52;;;;;;;7.32;100.00;100429.13;5100768;28;20050;-78
2021/04/21 08:12:12;;;;;;;3.10;0.80;;;;;;;7.43;100.00;100437.13;5112771;28;20055;-78
2021/04/21 08:15:17;;;;;;;1.05;0.90;;;;;;;7.58;100.00;100439.03;5100383;28;20057;-81
2021/04/21 08:18:31;;;;;;;1.65;0.95;;;;;;;7.80;100.00;100430.09;5112796;28;20113;-82
2021/04/21 08:21:47;;;;;;;0.73;0.73;;;;;;;8.14;100.00;100442.06;5112977;28;20050;-82
2021/04/21 08:24:50;;;;;;;2.30;0.85;;;;;;;8.38;100.00;100434.22;5112575;28;20050;-82
2021/04/21 08:27:55;;;;;;;0.60;0.60;;;;;;;8.50;100.00;100441.75;5112546;28;20058;-82
2021/04/21 08:31:00;;;;;;;1.23;1.13;;;;;;;8.59;100.00;100449.38;5113036;28;20070;-78
2021/04/21 08:34:05;;;;;;;3.17;1.27;;;;;;;8.79;100.00;100449.91;5111973;28;20532;-78
2021/04/21 08:37:09;;;;;;;0.60;0.60;;;;;;;8.90;100.00;100456.63;5112253;28;20141;-78
2021/04/21 08:40:16;;;;;;;2.05;0.85;;;;;;;9.23;100.00;100475.72;5112363;28;20074;-78
2021/04/21 08:43:20;;;;;;;7.15;0.68;;;;;;;9.38;100.00;100471.19;5111559;28;20417;-77
2021/04/21 08:46:24;;;;;;;0.40;0.40;;;;;;;9.42;100.00;100467.06;5092254;28;20055;-79
2021/04/21 08:49:31;;;;;;;1.60;0.80;;;;;;;9.36;100.00;100480.00;5091279;28;20062;-79
2021/04/21 08:52:47;;;;;;;3.22;0.50;;;;;;;9.25;100.00;100484.41;5079250;28;20508;-79
2021/04/21 08:55:53;;;;;;;1.23;0.95;;;;;;;9.34;100.00;100482.47;5091577;28;20448;-80
2021/04/21 08:58:57;;;;;;;8.23;0.50;;;;;;;9.35;100.00;100491.59;5091156;28;20055;-79
2021/04/21 09:02:01;;;;;;;0.90;0.75;;;;;;;9.34;100.00;100485.25;5091890;28;20063;-79
2021/04/21 09:05:04;;;;;;;4.40;0.80;;;;;;;9.41;100.00;100489.78;5091389;28;20444;-79
2021/04/21 09:08:09;;;;;;;3.40;0.40;;;;;;;9.58;100.00;100496.69;5091466;28;20405;-77
2021/04/21 09:11:14;;;;;;;0.95;0.90;;;;;;;9.75;100.00;100496.03;5091445;28;20418;-77
2021/04/21 09:14:17;;;;;;;2.45;1.33;;;;;;;10.04;100.00;100501.31;5090677;28;20051;-78
2021/04/21 09:17:21;;;;;;;0.98;0.35;;;;;;;10.33;100.00;100507.31;5079466;28;20047;-77
2021/04/21 09:20:26;;;;;;;4.03;0.43;;;;;;;10.55;100.00;100502.47;5091369;28;20047;-77
2021/04/21 09:23:41;;;;;;;0.85;0.63;;;;;;;10.64;100.00;100508.06;5091255;28;20406;-77
2021/04/21 09:26:45;;;;;;;5.10;0.77;;;;;;;10.62;100.00;100509.75;5078416;28;20051;-79
2021/04/21 09:29:48;;;;;;;1.33;0.38;;;;;;;10.62;100.00;100524.47;5090737;28;20055;-78
2021/04/21 09:32:54;;;;;;;2.58;1.30;;;;;;;10.49;100.00;100515.44;5091448;28;20532;-77
2021/04/21 09:35:58;;;;;;;0.90;0.90;;;;;;;10.42;100.00;100523.28;5091102;28;20059;-78
2021/04/21 09:39:12;;;;;;;7.97;0.63;;;;;;;10.50;100.00;100528.13;5090832;28;20071;-78
2021/04/21 09:42:25;;;;;;;9.25;0.70;;;;;;;10.57;100.00;100536.19;5090749;28;20410;-78
2021/04/21 09:45:49;;;;;;;1.52;0.70;;;;;;;10.70;100.00;100538.09;5108010;28;20452;-78
2021/04/21 09:48:52;;;;;;;1.85;0.70;;;;;;;10.84;100.00;100534.72;5110550;28;20101;-76
2021/04/21 09:52:21;;;;;;;10.40;0.93;;;;;;;10.96;100.00;100542.19;5111252;28;20054;-75
2021/04/21 09:55:30;;;;;;;0.75;0.28;;;;;;;11.19;100.00;100547.19;5110341;28;20515;-76
2021/04/21 09:58:36;;;;;;;2.80;0.98;;;;;;;11.32;100.00;100542.25;5110379;28;20535;-75
2021/04/21 10:01:39;;;;;;;1.40;1.27;;;;;;;11.49;100.00;100545.50;5111529;28;20054;-75
2021/04/21 10:04:43;;;;;;;3.42;0.40;;;;;;;11.50;100.00;100544.25;5110632;28;20047;-75
2021/04/21 10:07:47;;;;;;;0.98;0.80;;;;;;;11.45;100.00;100534.50;5110924;28;20046;-78
2021/04/21 10:11:00;;;;;;;1.05;0.95;;;;;;;11.23;100.00;100540.22;5111070;28;20055;-76
2021/04/21 10:14:04;;;;;;;1.30;0.47;;;;;;;11.10;100.00;100541.59;5110718;28;20050;-76
2021/04/21 10:17:08;;;;;;;1.95;0.70;;;;;;;11.14;100.00;100537.41;5110315;28;20079;-75
2021/04/21 10:20:14;;;;;;;1.33;0.80;;;;;;;11.26;100.00;100535.75;5109738;28;20433;-76
2021/04/21 10:23:18;;;;;;;1.48;1.30;;;;;;;11.42;100.00;100550.16;5109667;28;20054;-74
2021/04/21 10:26:22;;;;;;;0.45;0.45;;;;;;;11.52;100.00;100548.13;5110475;28;20058;-75
2021/04/21 10:29:27;;;;;;;3.65;1.40;;;;;;;11.57;100.00;100541.91;5110435;28;20051;-76
2021/04/21 10:32:32;;;;;;;1.63;1.17;;;;;;;11.44;100.00;100547.66;5111303;28;20572;-76
2021/04/21 10:35:36;;;;;;;1.88;1.15;;;;;;;11.34;100.00;100550.91;5097602;28;21090;-76
2021/04/21 10:38:42;;;;;;;0.80;0.65;;;;;;;11.47;100.00;100553.56;5108666;28;20055;-76
2021/04/21 10:42:08;;;;;;;1.70;0.73;;;;;;;11.60;100.00;100560.53;5109569;28;20050;-77
2021/04/21 10:45:14;;;;;;;0.82;0.80;;;;;;;11.68;100.00;100563.81;5104704;28;20153;-77
2021/04/21 10:48:42;;;;;;;0.75;0.52;;;;;;;11.82;100.00;100558.38;5108477;28;20058;-77
2021/04/21 10:51:46;;;;;;;1.70;0.55;;;;;;;11.82;100.00;100554.81;5099744;28;20050;-77
2021/04/21 10:54:53;;;;;;;0.90;0.82;;;;;;;11.64;100.00;100558.34;5102488;28;20055;-78
2021/04/21 10:57:59;;;;;;;8.27;1.23;;;;;;;11.53;100.00;100566.41;5093451;28;20055;-76
2021/04/21 11:01:28;;;;;;;0.63;0.60;;;;;;;11.43;100.00;100570.44;5094339;28;20055;-78
2021/04/21 11:05:05;;;;;;;3.50;0.98;;;;;;;11.28;100.00;100564.69;5093170;28;20533;-77
2021/04/21 11:08:10;;;;;;;2.17;1.63;;;;;;;11.26;100.00;100572.75;5081111;28;20143;-77
2021/04/21 11:11:16;;;;;;;3.53;1.25;;;;;;;11.19;100.00;100575.84;5093552;28;20051;-77
2021/04/21 11:14:47;;;;;;;1.27;0.65;;;;;;;11.07;100.00;100582.31;5092872;28;20419;-78
2021/04/21 11:18:10;;;;;;;1.20;0.98;;;;;;;11.27;100.00;100579.09;5094391;28;20079;-79
2021/04/21 11:21:18;;;;;;;2.70;0.77;;;;;;;11.35;100.00;100580.34;5093264;28;20051;-78
2021/04/21 11:24:22;;;;;;;9.52;1.13;;;;;;;11.54;100.00;100581.94;5092454;28;20058;-80
2021/04/21 11:27:43;;;;;;;2.33;1.33;;;;;;;11.57;100.00;100583.78;5093306;28;20410;-78
2021/04/21 11:30:54;;;;;;;8.70;0.90;;;;;;;11.64;100.00;100579.91;5093744;28;20070;-78
2021/04/21 11:33:57;;;;;;;6.60;1.08;;;;;;;11.78;100.00;100579.31;5093010;28;20418;-78
2021/04/21 11:37:12;;;;;;;12.10;1.38;;;;;;;12.00;100.00;100580.66;5093293;28;20060;-79
2021/04/21 11:40:34;;;;;;;1.35;1.08;;;;;;;12.13;100.00;100591.66;5092785;28;20060;-78
2021/04/21 11:43:40;;;;;;;;;;;;;;;12.15;100.00;100586.38;5094852;28;20059;-76
2021/04/21 11:46:59;;;;;;;16.17;0.50;;;;;;;12.23;100.00;100582.03;5113953;28;19916;-76
2021/04/21 11:50:10;;;;;;;0.98;0.68;;;;;;;12.21;100.00;100584.53;5100961;28;20048;-75
2021/04/21 11:53:15;;;;;;;6.72;2.30;;;;;;;12.30;100.00;100580.94;5105886;27;20409;-75
2021/04/21 11:56:19;;;;;;;4.22;0.93;;;;;;;12.43;100.00;100584.31;5103762;28;20055;-76
2021/04/21 11:59:24;;;;;;;6.65;0.95;;;;;;;12.38;100.00;100579.34;5104205;28;20059;-76
2021/04/21 12:02:31;;;;;;;4.18;0.60;;;;;;;12.37;100.00;100586.16;5113808;28;20520;-77
2021/04/21 12:05:36;;;;;;;2.47;1.40;;;;;;;12.33;100.00;100586.34;5101709;28;20413;-76
2021/04/21 12:08:50;;;;;;;2.00;0.82;;;;;;;12.23;100.00;100587.63;5111856;28;20074;-76
2021/04/21 12:11:58;;;;;;;2.72;0.82;;;;;;;12.05;100.00;100591.22;5112168;28;20065;-76
2021/04/21 12:15:07;;;;;;;6.55;1.00;;;;;;;11.79;100.00;100598.38;5110984;28;20051;-75
2021/04/21 12:18:11;;;;;;;4.13;1.08;;;;;;;11.64;100.00;100597.41;5112948;28;20062;-76
2021/04/21 12:21:18;;;;;;;5.95;1.30;;;;;;;11.72;100.00;100598.69;5098755;28;20051;-76
2021/04/21 12:24:21;;;;;;;3.53;1.05;;;;;;;11.87;100.00;100594.03;5111367;28;20050;-76
2021/04/21 12:27:31;;;;;;;3.90;1.48;;;;;;;12.13;100.00;100594.44;5099751;28;20528;-76
2021/04/21 12:30:34;;;;;;;8.48;0.82;;;;;;;12.10;100.00;100590.59;5112690;28;20051;-75
2021/04/21 12:33:38;;;;;;;3.55;1.48;;;;;;;12.19;100.00;100593.34;5112288;28;20059;-76
2021/04/21 12:36:42;;;;;;;1.38;0.95;;;;;;;12.33;100.00;100593.94;5084305;28;20055;-75
2021/04/21 12:39:45;;;;;;;8.18;1.02;;;;;;;12.44;100.00;100594.22;5112340;28;20059;-76
2021/04/21 12:42:49;;;;;;;3.83;1.38;;;;;;;12.64;100.00;100602.84;5102310;28;20054;-77
2021/04/21 12:45:54;;;;;;;5.03;1.00;;;;;;;12.70;100.00;100598.94;5092626;28;20055;-76
2021/04/21 12:48:59;;;;;;;1.90;0.65;;;;;;;12.62;100.00;100592.16;5079542;28;20058;-77
2021/04/21 12:52:05;;;;;;;4.65;1.15;;;;;;;12.41;100.00;100592.38;5091859;28;20055;-75
2021/04/21 12:55:09;;;;;;;3.72;1.20;;;;;;;12.37;100.00;100591.75;5091580;28;20051;-76
2021/04/21 12:58:14;;;;;;;6.60;0.90;;;;;;;12.49;100.00;100585.22;5091484;28;20055;-76
2021/04/21 13:01:22;;;;;;;1.73;1.15;;;;;;;12.62;100.00;100596.97;5091533;28;20047;-77
2021/04/21 13:04:39;;;;;;;1.50;0.28;;;;;;;12.66;100.00;100589.19;5091649;28;20066;-75
2021/04/21 13:07:42;;;;;;;4.95;0.82;;;;;;;12.71;100.00;100582.97;5091374;28;20071;-75
2021/04/21 13:10:46;;;;;;;3.50;0.98;;;;;;;12.60;100.00;100593.88;5089889;28;20051;-75
2021/04/21 13:13:50;;;;;;;2.33;0.68;;;;;;;12.61;100.00;100590.59;5091221;28;20055;-75
2021/04/21 13:16:53;;;;;;;0.77;0.40;;;;;;;12.60;100.00;100593.88;5091626;28;20055;-75
2021/04/21 13:19:58;;;;;;;14.32;1.20;;;;;;;12.58;100.00;100596.38;5090150;28;20142;-75
2021/04/21 13:23:18;;;;;;;5.72;0.65;;;;;;;12.82;100.00;100588.81;5091299;28;20060;-75
2021/04/21 13:26:22;;;;;;;2.92;0.43;;;;;;;13.18;100.00;100591.44;5089970;28;20055;-75
2021/04/21 13:29:31;;;;;;;11.57;0.63;;;;;;;13.18;100.00;100588.63;5078469;28;20059;-76
2021/04/21 13:32:36;;;;;;;2.58;0.85;;;;;;;13.19;100.00;100597.81;5091467;28;20048;-76
2021/04/21 13:35:39;;;;;;;5.88;0.70;;;;;;;13.02;100.00;100594.59;5090721;28;20047;-76
2021/04/21 13:38:44;;;;;;;5.38;0.77;;;;;;;13.01;100.00;100615.44;5090762;28;20075;-76
2021/04/21 13:41:48;;;;;;;6.10;1.02;;;;;;;12.76;100.00;100607.44;5078241;28;20047;-76
2021/04/21 13:44:53;;;;;;;15.50;1.38;;;;;;;12.57;100.00;100605.97;5103527;28;20055;-76
2021/04/21 13:47:56;;;;;;;0.30;0.30;;;;;;;12.45;100.00;100604.91;5111410;28;20044;-75
2021/04/21 13:51:01;;;;;;;3.35;0.57;;;;;;;12.48;100.00;100606.00;5110921;28;20051;-75
2021/04/21 13:54:04;;;;;;;3.50;0.25;;;;;;;12.44;100.00;100606.19;5110524;28;20050;-75
2021/04/21 13:57:09;;;;;;;6.68;1.17;;;;;;;12.43;100.00;100612.25;5110727;28;20070;-76
2021/04/21 14:00:14;;;;;;;11.02;0.93;;;;;;;12.51;100.00;100599.47;5110111;28;20055;-76
2021/04/21 14:03:18;;;;;;;4.32;1.05;;;;;;;12.53;100.00;100610.97;5110800;28;20501;-77
2021/04/21 14:06:21;;;;;;;8.25;1.38;;;;;;;12.76;100.00;100611.03;5111058;28;20074;-75
2021/04/21 14:09:26;;;;;;;4.38;0.88;;;;;;;13.01;100.00;100601.44;5110651;28;20047;-75
2021/04/21 14:12:29;;;;;;;2.28;1.00;;;;;;;12.98;100.00;100602.38;5110811;28;20142;-75
2021/04/21 14:15:33;;;;;;;0.52;0.30;;;;;;;13.01;100.00;100595.84;5111453;28;20070;-77
2021/04/21 14:18:36;;;;;;;3.38;1.10;;;;;;;12.74;100.00;100598.75;5110753;28;20065;-74
2021/04/21 14:21:40;;;;;;;1.50;0.80;;;;;;;12.72;100.00;100595.66;5109620;28;20066;-75
2021/04/21 14:24:44;;;;;;;5.88;1.13;;;;;;;12.81;100.00;100593.63;5110419;28;20067;-75
2021/04/21 14:27:49;;;;;;;8.77;1.08;;;;;;;12.57;100.00;100592.78;5110689;28;20059;-76
2021/04/21 14:30:53;;;;;;;6.63;0.95;;;;;;;12.61;100.00;100595.41;5112746;28;20503;-75
2021/04/21 14:33:57;;;;;;;1.88;1.00;;;;;;;12.78;100.00;100593.78;5114215;28;20528;-75
2021/04/21 14:37:00;;;;;;;8.13;1.73;;;;;;;13.16;100.00;100582.75;5114671;28;20121;-75